TimeEDT,TemperatureF,Dew PointF,Humidity,Sea Level PressureIn,VisibilityMPH,Wind Direction,Wind SpeedMPH,Gust SpeedMPH,PrecipitationIn,Events,Conditions,WindDirDegrees,DateUTC
12:15 AM,69.8,60.8,73,29.76,10.0,West,12.7,-,N/A,,Clear,280,2013-06-12 04:15:00
12:35 AM,69.8,60.8,73,29.76,10.0,West,9.2,18.4,N/A,,Clear,280,2013-06-12 04:35:00
12:55 AM,69.8,60.8,73,29.76,10.0,West,11.5,-,N/A,,Clear,270,2013-06-12 04:55:00
1:15 AM,69.8,60.8,73,29.76,10.0,West,9.2,-,N/A,,Clear,280,2013-06-12 05:15:00
1:35 AM,69.8,60.8,73,29.76,10.0,West,9.2,-,N/A,,Clear,270,2013-06-12 05:35:00
1:55 AM,69.8,59.0,68,29.76,10.0,West,9.2,-,N/A,,Clear,270,2013-06-12 05:55:00
2:15 AM,69.8,59.0,68,29.75,10.0,West,8.1,-,N/A,,Clear,260,2013-06-12 06:15:00
2:35 AM,69.8,59.0,68,29.75,10.0,WSW,6.9,-,N/A,,Clear,250,2013-06-12 06:35:00
2:55 AM,68.0,59.0,73,29.75,10.0,West,11.5,-,N/A,,Clear,260,2013-06-12 06:55:00
3:15 AM,68.0,59.0,73,29.75,10.0,West,10.4,17.3,N/A,,Clear,260,2013-06-12 07:15:00
3:35 AM,68.0,57.2,68,29.75,10.0,West,10.4,17.3,N/A,,Clear,270,2013-06-12 07:35:00
3:55 AM,68.0,57.2,68,29.75,10.0,West,9.2,-,N/A,,Clear,270,2013-06-12 07:55:00
4:15 AM,68.0,57.2,68,29.75,10.0,West,11.5,17.3,N/A,,Clear,270,2013-06-12 08:15:00
4:35 AM,68.0,57.2,68,29.76,10.0,West,8.1,-,N/A,,Clear,270,2013-06-12 08:35:00
4:55 AM,68.0,57.2,68,29.77,10.0,West,9.2,-,N/A,,Clear,280,2013-06-12 08:55:00
5:15 AM,66.2,57.2,73,29.77,10.0,West,11.5,-,N/A,,Clear,280,2013-06-12 09:15:00
5:35 AM,66.2,57.2,73,29.77,10.0,West,10.4,-,N/A,,Clear,280,2013-06-12 09:35:00
5:55 AM,66.2,57.2,73,29.78,10.0,West,9.2,-,N/A,,Clear,280,2013-06-12 09:55:00
6:15 AM,66.2,57.2,73,29.78,10.0,WNW,11.5,-,N/A,,Clear,290,2013-06-12 10:15:00
6:35 AM,68.0,59.0,73,29.78,10.0,WNW,11.5,16.1,N/A,,Clear,290,2013-06-12 10:35:00
6:55 AM,69.8,59.0,68,29.79,10.0,WNW,9.2,-,N/A,,Clear,290,2013-06-12 10:55:00
7:15 AM,69.8,59.0,68,29.79,10.0,WNW,11.5,19.6,N/A,,Clear,290,2013-06-12 11:15:00
7:35 AM,69.8,59.0,68,29.80,10.0,WNW,13.8,21.9,N/A,,Clear,290,2013-06-12 11:35:00
7:55 AM,71.6,57.2,60,29.80,10.0,WNW,12.7,24.2,N/A,,Clear,300,2013-06-12 11:55:00
8:15 AM,69.8,55.4,60,29.81,10.0,WNW,17.3,25.3,N/A,,Clear,300,2013-06-12 12:15:00
8:35 AM,69.8,55.4,60,29.81,10.0,NW,18.4,24.2,N/A,,Clear,310,2013-06-12 12:35:00
8:55 AM,71.6,55.4,57,29.80,10.0,NW,15.0,-,N/A,,Clear,310,2013-06-12 12:55:00
9:15 AM,69.8,53.6,56,29.81,10.0,NW,15.0,27.6,N/A,,Clear,320,2013-06-12 13:15:00
9:35 AM,69.8,53.6,56,29.81,10.0,NW,13.8,24.2,N/A,,Clear,310,2013-06-12 13:35:00
9:55 AM,69.8,53.6,56,29.81,10.0,WNW,13.8,25.3,N/A,,Clear,300,2013-06-12 13:55:00
10:15 AM,71.6,53.6,53,29.81,10.0,NW,15.0,24.2,N/A,,Partly Cloudy,320,2013-06-12 14:15:00
10:35 AM,71.6,53.6,53,29.81,10.0,WNW,15.0,23.0,N/A,,Clear,300,2013-06-12 14:35:00
10:55 AM,73.4,55.4,53,29.81,10.0,WNW,13.8,-,N/A,,Clear,290,2013-06-12 14:55:00
11:15 AM,73.4,55.4,53,29.82,10.0,WNW,16.1,21.9,N/A,,Clear,300,2013-06-12 15:15:00
11:35 AM,73.4,55.4,53,29.82,10.0,WNW,12.7,20.7,N/A,,Clear,290,2013-06-12 15:35:00
11:55 AM,75.2,55.4,50,29.82,10.0,WNW,16.1,24.2,N/A,,Clear,300,2013-06-12 15:55:00
12:15 PM,75.2,55.4,50,29.82,10.0,NW,16.1,21.9,N/A,,Clear,310,2013-06-12 16:15:00
12:35 PM,75.2,55.4,50,29.82,10.0,NW,16.1,21.9,N/A,,Clear,320,2013-06-12 16:35:00
12:55 PM,77.0,55.4,47,29.82,10.0,WNW,17.3,23.0,N/A,,Partly Cloudy,300,2013-06-12 16:55:00
1:15 PM,78.8,57.2,47,29.82,10.0,NW,15.0,19.6,N/A,,Scattered Clouds,310,2013-06-12 17:15:00
1:35 PM,78.8,55.4,44,29.82,10.0,WNW,11.5,19.6,N/A,,Partly Cloudy,290,2013-06-12 17:35:00
1:55 PM,78.8,55.4,44,29.82,10.0,WNW,17.3,23.0,N/A,,Partly Cloudy,290,2013-06-12 17:55:00
2:15 PM,80.6,55.4,42,29.82,10.0,West,16.1,24.2,N/A,,Partly Cloudy,280,2013-06-12 18:15:00
2:35 PM,80.6,55.4,42,29.81,10.0,WNW,15.0,19.6,N/A,,Partly Cloudy,290,2013-06-12 18:35:00
2:55 PM,80.6,55.4,42,29.81,10.0,NW,19.6,24.2,N/A,,Partly Cloudy,310,2013-06-12 18:55:00
3:15 PM,80.6,55.4,42,29.81,10.0,WNW,12.7,19.6,N/A,,Partly Cloudy,300,2013-06-12 19:15:00
3:35 PM,80.6,55.4,42,29.81,10.0,WNW,13.8,23.0,N/A,,Clear,290,2013-06-12 19:35:00
3:55 PM,80.6,55.4,42,29.80,10.0,WNW,12.7,19.6,N/A,,Scattered Clouds,290,2013-06-12 19:55:00
4:15 PM,82.4,53.6,37,29.80,10.0,NW,11.5,-,N/A,,Scattered Clouds,310,2013-06-12 20:15:00
4:35 PM,80.6,53.6,39,29.80,10.0,WNW,15.0,18.4,N/A,,Scattered Clouds,290,2013-06-12 20:35:00
4:55 PM,80.6,53.6,39,29.80,10.0,NNW,11.5,18.4,N/A,,Partly Cloudy,330,2013-06-12 20:55:00
5:15 PM,80.6,53.6,39,29.81,10.0,NW,10.4,-,N/A,,Partly Cloudy,310,2013-06-12 21:15:00
5:35 PM,80.6,53.6,39,29.81,10.0,NNW,16.1,-,N/A,,Clear,330,2013-06-12 21:35:00
5:55 PM,80.6,53.6,39,29.82,10.0,NW,11.5,-,N/A,,Clear,310,2013-06-12 21:55:00
6:15 PM,80.6,53.6,39,29.82,10.0,NW,10.4,-,N/A,,Clear,310,2013-06-12 22:15:00
6:35 PM,80.6,53.6,39,29.82,10.0,NW,12.7,-,N/A,,Clear,320,2013-06-12 22:35:00
6:55 PM,78.8,53.6,42,29.82,10.0,NNE,6.9,-,N/A,,Clear,30,2013-06-12 22:55:00
7:15 PM,-9999,-9999,N/A,29.82,10.0,North,9.2,-,N/A,,Clear,10,2013-06-12 23:15:00
7:35 PM,75.2,55.4,50,29.83,10.0,North,5.8,-,N/A,,Clear,10,2013-06-12 23:35:00
7:55 PM,73.4,55.4,53,29.84,10.0,NE,4.6,-,N/A,,Clear,50,2013-06-12 23:55:00
8:15 PM,73.4,55.4,53,29.85,10.0,ENE,5.8,-,N/A,,Clear,60,2013-06-13 00:15:00
8:35 PM,73.4,55.4,53,29.86,10.0,ENE,3.5,-,N/A,,Clear,60,2013-06-13 00:35:00
8:55 PM,71.6,53.6,53,29.86,10.0,NNE,5.8,-,N/A,,Clear,20,2013-06-13 00:55:00
9:15 PM,71.6,53.6,53,29.86,10.0,North,4.6,-,N/A,,Clear,10,2013-06-13 01:15:00
9:35 PM,71.6,53.6,53,29.86,10.0,NE,4.6,-,N/A,,Clear,40,2013-06-13 01:35:00
9:55 PM,68.0,55.4,64,29.86,10.0,Calm,Calm,-,N/A,,Clear,0,2013-06-13 01:55:00
10:15 PM,69.8,53.6,56,29.87,10.0,Calm,Calm,-,N/A,,Clear,0,2013-06-13 02:15:00
10:35 PM,66.2,57.2,73,29.87,10.0,SSE,4.6,-,N/A,,Clear,160,2013-06-13 02:35:00
10:55 PM,64.4,55.4,73,29.86,10.0,SE,3.5,-,N/A,,Clear,130,2013-06-13 02:55:00
11:15 PM,66.2,55.4,68,29.86,10.0,South,5.8,-,N/A,,Clear,170,2013-06-13 03:15:00
11:35 PM,64.4,57.2,77,29.85,10.0,SSE,4.6,-,N/A,,Clear,160,2013-06-13 03:35:00
11:55 PM,64.4,57.2,77,29.85,10.0,SSW,5.8,-,N/A,,Clear,200,2013-06-13 03:55:00